createdAt,value
2022-10-16T00:00:40.992Z,13.91
2022-10-16T00:01:41.005Z,13.89
2022-10-16T00:02:40.981Z,13.89
2022-10-16T00:03:40.990Z,13.89
2022-10-16T00:04:40.939Z,13.87
2022-10-16T00:05:40.903Z,13.88
2022-10-16T00:06:40.932Z,13.84
2022-10-16T00:07:40.917Z,13.84
2022-10-16T00:08:40.988Z,13.83
2022-10-16T00:09:40.885Z,13.80
2022-10-16T00:10:40.856Z,13.80
2022-10-16T00:11:40.980Z,13.77
2022-10-16T00:12:40.980Z,13.77
2022-10-16T00:13:40.854Z,13.77
2022-10-16T00:14:40.827Z,13.76
2022-10-16T00:15:40.835Z,13.74
2022-10-16T00:16:40.811Z,13.76
2022-10-16T00:17:40.793Z,13.74
2022-10-16T00:18:40.797Z,13.73
2022-10-16T00:19:40.792Z,13.73
2022-10-16T00:20:40.743Z,13.70
2022-10-16T00:21:40.729Z,13.69
2022-10-16T00:22:40.746Z,13.69
2022-10-16T00:23:40.725Z,13.65
2022-10-16T00:24:40.715Z,13.67
2022-10-16T00:25:40.714Z,13.65
2022-10-16T00:26:47.295Z,13.63
2022-10-16T00:27:40.682Z,13.63
2022-10-16T00:28:40.706Z,13.63
2022-10-16T00:29:40.631Z,13.62
2022-10-16T00:30:40.643Z,13.62
2022-10-16T00:31:40.617Z,13.59
2022-10-16T00:32:40.606Z,13.59
2022-10-16T00:33:40.632Z,13.59
2022-10-16T00:34:40.588Z,13.59
2022-10-16T00:35:40.587Z,13.56
2022-10-16T00:36:40.579Z,13.54
2022-10-16T00:37:40.557Z,13.55
2022-10-16T00:38:40.559Z,13.52
2022-10-16T00:39:40.531Z,13.51
2022-10-16T00:40:40.505Z,13.51
2022-10-16T00:41:40.515Z,13.51
2022-10-16T00:42:40.548Z,13.52
2022-10-16T00:43:40.479Z,13.52
2022-10-16T00:44:40.476Z,13.55
2022-10-16T00:45:40.458Z,13.54
2022-10-16T00:46:40.462Z,13.55
2022-10-16T00:47:40.444Z,13.56
2022-10-16T00:48:40.434Z,13.55
2022-10-16T00:49:40.410Z,13.56
2022-10-16T00:50:40.410Z,13.58
2022-10-16T00:51:40.376Z,13.58
2022-10-16T00:52:40.402Z,13.55
2022-10-16T00:53:40.357Z,13.56
2022-10-16T00:54:40.364Z,13.55
2022-10-16T00:55:42.485Z,13.55
2022-10-16T00:56:40.342Z,13.52
2022-10-16T00:57:40.340Z,13.52
2022-10-16T00:58:40.330Z,13.52
2022-10-16T00:59:40.298Z,13.51
2022-10-16T01:00:40.316Z,13.49
2022-10-16T01:01:40.272Z,13.46
2022-10-16T01:02:40.307Z,13.44
2022-10-16T01:03:40.268Z,13.44
2022-10-16T01:04:40.310Z,13.43
2022-10-16T01:05:40.229Z,13.40
2022-10-16T01:06:40.246Z,13.38
2022-10-16T01:07:40.299Z,13.38
2022-10-16T01:08:40.200Z,13.38
2022-10-16T01:09:40.186Z,13.37
2022-10-16T01:10:40.214Z,13.37
2022-10-16T01:11:40.175Z,13.33
2022-10-16T01:12:41.194Z,13.33
2022-10-16T01:13:40.180Z,13.32
2022-10-16T01:14:40.136Z,13.30
2022-10-16T01:15:40.129Z,13.30
2022-10-16T01:16:40.107Z,13.29
2022-10-16T01:17:40.124Z,13.30
2022-10-16T01:18:40.111Z,13.30
2022-10-16T01:19:40.081Z,13.30
2022-10-16T01:20:40.096Z,13.32
2022-10-16T01:21:40.057Z,13.32
2022-10-16T01:22:40.051Z,13.32
2022-10-16T01:23:40.075Z,13.30
2022-10-16T01:24:40.100Z,13.27
2022-10-16T01:25:40.001Z,13.29
2022-10-16T01:26:39.990Z,13.25
2022-10-16T01:27:39.986Z,13.24
2022-10-16T01:28:40.048Z,13.21
2022-10-16T01:29:39.976Z,13.22
2022-10-16T01:30:39.970Z,13.21
2022-10-16T01:31:39.962Z,13.22
2022-10-16T01:32:39.946Z,13.20
2022-10-16T01:33:39.936Z,13.18
2022-10-16T01:34:39.929Z,13.17
2022-10-16T01:35:39.949Z,13.17
2022-10-16T01:36:39.904Z,13.14
2022-10-16T01:37:39.868Z,13.09
2022-10-16T01:38:39.876Z,13.09
2022-10-16T01:39:39.890Z,13.06
2022-10-16T01:40:39.855Z,13.04
2022-10-16T01:41:39.836Z,13.03
2022-10-16T01:42:39.834Z,13.00
2022-10-16T01:43:39.808Z,12.97
2022-10-16T01:44:39.830Z,12.97
2022-10-16T01:45:39.787Z,12.95
2022-10-16T01:46:39.773Z,12.93
2022-10-16T01:47:39.760Z,12.92
2022-10-16T01:48:39.753Z,12.89
2022-10-16T01:49:39.787Z,12.89
2022-10-16T01:50:39.743Z,12.88
2022-10-16T01:51:39.736Z,12.92
2022-10-16T01:52:39.732Z,12.92
2022-10-16T01:53:39.718Z,12.92
2022-10-16T01:54:39.684Z,12.92
2022-10-16T01:55:39.705Z,12.89
2022-10-16T01:56:39.670Z,12.92
2022-10-16T01:57:39.650Z,12.89
2022-10-16T01:58:39.652Z,12.88
2022-10-16T01:59:39.660Z,12.88
2022-10-16T02:00:39.646Z,12.87
2022-10-16T02:01:39.620Z,12.87
2022-10-16T02:02:39.607Z,12.85
2022-10-16T02:03:39.592Z,12.87
2022-10-16T02:04:39.610Z,12.87
2022-10-16T02:05:39.593Z,12.87
2022-10-16T02:06:39.554Z,12.87
2022-10-16T02:07:39.545Z,12.87
2022-10-16T02:08:39.543Z,12.87
2022-10-16T02:09:39.518Z,12.87
2022-10-16T02:10:39.568Z,12.85
2022-10-16T02:11:39.520Z,12.84
2022-10-16T02:12:39.520Z,12.84
2022-10-16T02:13:39.484Z,12.81
2022-10-16T02:14:39.458Z,12.81
2022-10-16T02:15:39.464Z,12.79
2022-10-16T02:16:39.473Z,12.78
2022-10-16T02:17:39.443Z,12.78
2022-10-16T02:18:39.434Z,12.75
2022-10-16T02:20:39.407Z,12.69
2022-10-16T02:21:39.387Z,12.69
2022-10-16T02:22:39.397Z,12.69
2022-10-16T02:23:39.371Z,12.67
2022-10-16T02:24:39.365Z,12.66
2022-10-16T02:25:39.341Z,12.66
2022-10-16T02:26:39.337Z,12.63
2022-10-16T02:27:39.342Z,12.62
2022-10-16T02:28:39.406Z,12.62
2022-10-16T02:29:39.310Z,12.60
2022-10-16T02:30:39.300Z,12.62
2022-10-16T02:31:39.292Z,12.60
2022-10-16T02:32:39.301Z,12.60
2022-10-16T02:33:39.252Z,12.59
2022-10-16T02:34:39.257Z,12.56
2022-10-16T02:35:39.249Z,12.54
2022-10-16T02:36:39.238Z,12.52
2022-10-16T02:37:39.228Z,12.51
2022-10-16T02:38:39.221Z,12.48
2022-10-16T02:39:39.194Z,12.48
2022-10-16T02:40:39.200Z,12.48
2022-10-16T02:41:39.192Z,12.45
2022-10-16T02:42:39.185Z,12.46
2022-10-16T02:43:39.169Z,12.45
2022-10-16T02:44:39.148Z,12.44
2022-10-16T02:45:39.149Z,12.42
2022-10-16T02:46:39.110Z,12.38
2022-10-16T02:47:39.099Z,12.37
2022-10-16T02:48:39.112Z,12.34
2022-10-16T02:49:39.078Z,12.33
2022-10-16T02:50:39.063Z,12.34
2022-10-16T02:51:39.050Z,12.30
2022-10-16T02:52:39.044Z,12.30
2022-10-16T02:53:39.033Z,12.33
2022-10-16T02:54:39.053Z,12.30
2022-10-16T02:55:39.003Z,12.30
2022-10-16T02:56:39.006Z,12.30
2022-10-16T02:57:38.984Z,12.29
2022-10-16T02:58:38.988Z,12.29
2022-10-16T02:59:39.003Z,12.27
2022-10-16T03:00:38.955Z,12.27
2022-10-16T03:01:39.029Z,12.24
2022-10-16T03:02:38.939Z,12.23
2022-10-16T03:03:38.918Z,12.26
2022-10-16T03:04:38.913Z,12.29
2022-10-16T03:05:38.911Z,12.30
2022-10-16T03:06:38.901Z,12.30
2022-10-16T03:07:38.897Z,12.30
2022-10-16T03:08:38.865Z,12.31
2022-10-16T03:09:38.853Z,12.30
2022-10-16T03:10:38.870Z,12.26
2022-10-16T03:11:38.834Z,12.26
2022-10-16T03:12:38.840Z,12.26
2022-10-16T03:13:38.803Z,12.26
2022-10-16T03:14:38.815Z,12.24
2022-10-16T03:15:38.837Z,12.23
2022-10-16T03:16:38.783Z,12.23
2022-10-16T03:17:38.777Z,12.21
2022-10-16T03:18:38.760Z,12.19
2022-10-16T03:19:38.769Z,12.19
2022-10-16T03:20:38.781Z,12.19
2022-10-16T03:21:38.743Z,12.16
2022-10-16T03:22:38.719Z,12.16
2022-10-16T03:23:38.705Z,12.15
2022-10-16T03:24:38.717Z,12.13
2022-10-16T03:25:38.690Z,12.13
2022-10-16T03:26:38.709Z,12.12
2022-10-16T03:27:39.505Z,12.09
2022-10-16T03:28:38.711Z,12.09
2022-10-16T03:29:38.633Z,12.08
2022-10-16T03:30:38.624Z,12.05
2022-10-16T03:31:38.611Z,12.06
2022-10-16T03:32:38.629Z,12.05
2022-10-16T03:33:38.593Z,12.04
2022-10-16T03:34:38.595Z,12.04
2022-10-16T03:35:38.576Z,12.02
2022-10-16T03:36:38.571Z,12.02
2022-10-16T03:37:38.582Z,12.02
2022-10-16T03:38:38.557Z,12.04
2022-10-16T03:39:38.530Z,12.04
2022-10-16T03:40:38.527Z,12.06
2022-10-16T03:41:38.501Z,12.08
2022-10-16T03:42:38.576Z,12.09
2022-10-16T03:43:38.496Z,12.09
2022-10-16T03:44:38.521Z,12.09
2022-10-16T03:45:38.463Z,12.12
2022-10-16T03:46:38.456Z,12.13
2022-10-16T03:47:38.444Z,12.15
2022-10-16T03:48:38.450Z,12.16
2022-10-16T03:49:38.429Z,12.19
2022-10-16T03:50:38.418Z,12.21
2022-10-16T03:51:38.389Z,12.23
2022-10-16T03:52:38.393Z,12.21
2022-10-16T03:53:38.401Z,12.21
2022-10-16T03:54:38.350Z,12.20
2022-10-16T03:55:38.346Z,12.20
2022-10-16T03:56:38.351Z,12.19
2022-10-16T03:57:38.325Z,12.16
2022-10-16T03:58:38.339Z,12.16
2022-10-16T03:59:38.314Z,12.16
2022-10-16T04:00:38.295Z,12.15
2022-10-16T04:01:38.278Z,12.16
2022-10-16T04:02:38.321Z,12.16
2022-10-16T04:03:38.262Z,12.15
2022-10-16T04:04:38.252Z,12.13
2022-10-16T04:05:38.255Z,12.16
2022-10-16T04:06:38.214Z,12.20
2022-10-16T04:07:38.214Z,12.20
2022-10-16T04:08:38.191Z,12.16
2022-10-16T04:09:38.233Z,12.19
2022-10-16T04:10:38.183Z,12.15
2022-10-16T04:11:38.173Z,12.12
2022-10-16T04:12:38.150Z,12.09
2022-10-16T04:13:38.136Z,12.09
2022-10-16T04:14:38.141Z,12.08
2022-10-16T04:15:38.131Z,12.06
2022-10-16T04:16:38.132Z,12.08
2022-10-16T04:17:38.088Z,12.09
2022-10-16T04:18:38.112Z,12.09
2022-10-16T04:19:38.075Z,12.08
2022-10-16T04:20:38.105Z,12.06
2022-10-16T04:21:38.055Z,12.05
2022-10-16T04:22:38.037Z,12.11
2022-10-16T04:23:38.029Z,12.12
2022-10-16T04:24:38.016Z,12.12
2022-10-16T04:25:38.018Z,12.09
2022-10-16T04:26:37.991Z,12.11
2022-10-16T04:27:41.005Z,12.08
2022-10-16T04:28:38.038Z,12.08
2022-10-16T04:29:37.955Z,12.08
2022-10-16T04:30:37.965Z,12.06
2022-10-16T04:31:37.935Z,12.04
2022-10-16T04:32:37.922Z,12.02
2022-10-16T04:33:37.925Z,11.99
2022-10-16T04:34:37.907Z,11.97
2022-10-16T04:35:37.911Z,11.96
2022-10-16T04:36:37.900Z,11.93
2022-10-16T04:37:37.862Z,11.93
2022-10-16T04:38:37.878Z,11.94
2022-10-16T04:39:37.845Z,11.94
2022-10-16T04:40:37.869Z,11.93
2022-10-16T04:41:37.839Z,11.90
2022-10-16T04:42:37.826Z,11.89
2022-10-16T04:43:37.813Z,11.87
2022-10-16T04:44:37.801Z,11.85
2022-10-16T04:45:37.814Z,11.85
2022-10-16T04:46:37.774Z,11.82
2022-10-16T04:47:37.781Z,11.80
2022-10-16T04:48:37.744Z,11.80
2022-10-16T04:49:37.760Z,11.77
2022-10-16T04:50:37.741Z,11.75
2022-10-16T04:51:37.703Z,11.74
2022-10-16T04:52:37.707Z,11.74
2022-10-16T04:53:37.693Z,11.75
2022-10-16T04:54:37.691Z,11.72
2022-10-16T04:55:37.678Z,11.71
2022-10-16T04:56:37.673Z,11.71
2022-10-16T04:57:37.749Z,11.70
2022-10-16T04:58:37.639Z,11.70
2022-10-16T04:59:37.623Z,11.67
2022-10-16T05:00:37.687Z,11.68
2022-10-16T05:01:37.616Z,11.70
2022-10-16T05:02:42.034Z,11.67
2022-10-16T05:03:37.591Z,11.67
2022-10-16T05:04:37.562Z,11.65
2022-10-16T05:05:37.566Z,11.65
2022-10-16T05:06:37.557Z,11.67
2022-10-16T05:07:37.522Z,11.65
2022-10-16T05:08:37.510Z,11.65
2022-10-16T05:09:37.506Z,11.65
2022-10-16T05:10:37.531Z,11.64
2022-10-16T05:11:37.477Z,11.65
2022-10-16T05:12:37.513Z,11.64
2022-10-16T05:13:37.456Z,11.65
2022-10-16T05:14:37.454Z,11.64
2022-10-16T05:15:37.470Z,11.64
2022-10-16T05:16:37.425Z,11.65
2022-10-16T05:17:41.118Z,11.65
2022-10-16T05:18:37.422Z,11.64
2022-10-16T05:19:37.401Z,11.64
2022-10-16T05:20:37.396Z,11.62
2022-10-16T05:21:37.381Z,11.62
2022-10-16T05:22:37.371Z,11.65
2022-10-16T05:23:37.340Z,11.67
2022-10-16T05:24:37.346Z,11.68
2022-10-16T05:25:37.356Z,11.68
2022-10-16T05:26:37.321Z,11.70
2022-10-16T05:27:37.300Z,11.75
2022-10-16T05:28:37.367Z,11.86
2022-10-16T05:29:37.282Z,11.90
2022-10-16T05:30:37.297Z,11.89
2022-10-16T05:31:37.256Z,11.87
2022-10-16T05:32:37.265Z,11.86
2022-10-16T05:33:37.275Z,11.85
2022-10-16T05:34:37.232Z,11.80
2022-10-16T05:35:37.234Z,11.77
2022-10-16T05:36:37.213Z,11.75
2022-10-16T05:37:37.203Z,11.72
2022-10-16T05:38:37.215Z,11.72
2022-10-16T05:39:37.180Z,11.71
2022-10-16T05:40:37.189Z,11.70
2022-10-16T05:41:37.157Z,11.71
2022-10-16T05:42:37.134Z,11.68
2022-10-16T05:43:37.126Z,11.68
2022-10-16T05:44:37.192Z,11.67
2022-10-16T05:45:37.120Z,11.65
2022-10-16T05:46:37.098Z,11.65
2022-10-16T05:47:37.105Z,11.62
2022-10-16T05:48:37.072Z,11.61
2022-10-16T05:49:39.214Z,11.62
2022-10-16T05:50:37.067Z,11.61
2022-10-16T05:51:37.040Z,11.64
2022-10-16T05:52:37.060Z,11.68
2022-10-16T05:53:37.064Z,11.68
2022-10-16T05:54:37.013Z,11.67
2022-10-16T05:55:37.041Z,11.68
2022-10-16T05:56:36.997Z,11.68
2022-10-16T05:57:36.962Z,11.68
2022-10-16T05:58:36.956Z,11.68
2022-10-16T05:59:36.943Z,11.68
2022-10-16T06:00:36.986Z,11.68
2022-10-16T06:01:36.924Z,11.67
2022-10-16T06:02:36.933Z,11.68
2022-10-16T06:03:36.905Z,11.68
2022-10-16T06:04:36.922Z,11.71
2022-10-16T06:05:36.916Z,11.70
2022-10-16T06:06:36.889Z,11.70
2022-10-16T06:07:36.885Z,11.68
2022-10-16T06:08:36.863Z,11.67
2022-10-16T06:09:36.833Z,11.65
2022-10-16T06:10:36.866Z,11.65
2022-10-16T06:11:36.814Z,11.64
2022-10-16T06:12:36.826Z,11.64
2022-10-16T06:13:36.788Z,11.64
2022-10-16T06:14:36.813Z,11.64
2022-10-16T06:15:36.786Z,11.64
2022-10-16T06:16:36.760Z,11.65
2022-10-16T06:17:36.747Z,11.64
2022-10-16T06:18:36.763Z,11.62
2022-10-16T06:19:36.723Z,11.62
2022-10-16T06:20:36.740Z,11.64
2022-10-16T06:21:36.704Z,11.64
2022-10-16T06:22:36.690Z,11.62
2022-10-16T06:23:36.741Z,11.64
2022-10-16T06:24:36.673Z,11.65
2022-10-16T06:25:36.677Z,11.65
2022-10-16T06:26:43.209Z,11.62
2022-10-16T06:27:36.631Z,11.65
2022-10-16T06:28:36.713Z,11.65
2022-10-16T06:29:36.614Z,11.62
2022-10-16T06:30:36.647Z,11.64
2022-10-16T06:31:36.582Z,11.65
2022-10-16T06:32:36.589Z,11.65
2022-10-16T06:33:36.606Z,11.65
2022-10-16T06:34:37.629Z,11.65
2022-10-16T06:35:36.573Z,11.68
2022-10-16T06:36:36.546Z,11.71
2022-10-16T06:37:36.552Z,11.71
2022-10-16T06:38:36.510Z,11.72
2022-10-16T06:39:36.523Z,11.72
2022-10-16T06:40:36.519Z,11.74
2022-10-16T06:41:36.509Z,11.75
2022-10-16T06:42:36.504Z,11.80
2022-10-16T06:43:36.506Z,11.82
2022-10-16T06:44:36.472Z,11.82
2022-10-16T06:45:36.453Z,11.85
2022-10-16T06:46:36.501Z,11.85
2022-10-16T06:47:36.426Z,11.86
2022-10-16T06:48:36.419Z,11.87
2022-10-16T06:49:36.396Z,11.93
2022-10-16T06:50:36.439Z,11.97
2022-10-16T06:51:37.989Z,11.99
2022-10-16T06:52:36.371Z,12.01
2022-10-16T06:53:40.102Z,12.05
2022-10-16T06:54:42.121Z,12.06
2022-10-16T06:55:36.358Z,12.12
2022-10-16T06:56:36.340Z,12.16
2022-10-16T06:57:36.319Z,12.21
2022-10-16T06:58:36.302Z,12.31
2022-10-16T06:59:36.300Z,12.39
2022-10-16T07:00:36.297Z,12.54
2022-10-16T07:01:36.260Z,12.62
2022-10-16T07:02:36.255Z,12.67
2022-10-16T07:03:36.240Z,12.74
2022-10-16T07:04:36.295Z,12.77
2022-10-16T07:05:36.267Z,12.82
2022-10-16T07:06:36.206Z,12.88
2022-10-16T07:07:36.193Z,12.89
2022-10-16T07:08:36.193Z,12.95
2022-10-16T07:09:36.188Z,13.00
2022-10-16T07:10:36.175Z,13.06
2022-10-16T07:11:36.183Z,13.09
2022-10-16T07:12:36.154Z,13.09
2022-10-16T07:13:36.146Z,13.07
2022-10-16T07:14:36.149Z,13.11
2022-10-16T07:15:36.119Z,13.07
2022-10-16T07:16:36.146Z,13.22
2022-10-16T07:17:36.112Z,13.30
2022-10-16T07:18:36.123Z,13.36
2022-10-16T07:19:36.065Z,13.33
2022-10-16T07:20:36.088Z,13.29
2022-10-16T07:21:36.072Z,13.36
2022-10-16T07:22:36.025Z,13.37
2022-10-16T07:23:36.019Z,13.36
2022-10-16T07:24:36.002Z,13.37
2022-10-16T07:25:36.019Z,13.36
2022-10-16T07:26:36.005Z,13.32
2022-10-16T07:28:36.054Z,13.32
2022-10-16T07:29:35.946Z,13.36
2022-10-16T07:30:36.028Z,13.40
2022-10-16T07:31:35.925Z,13.44
2022-10-16T07:32:35.918Z,13.46
2022-10-16T07:33:35.924Z,13.47
2022-10-16T07:34:35.923Z,13.52
2022-10-16T07:35:35.928Z,13.54
2022-10-16T07:36:35.946Z,13.55
2022-10-16T07:37:35.899Z,13.56
2022-10-16T07:38:35.883Z,13.58
2022-10-16T07:39:35.827Z,13.59
2022-10-16T07:40:35.856Z,13.61
2022-10-16T07:41:35.862Z,13.63
2022-10-16T07:42:35.820Z,13.69
2022-10-16T07:43:35.803Z,13.74
2022-10-16T07:44:35.803Z,13.79
2022-10-16T07:45:35.768Z,13.84
2022-10-16T07:46:35.786Z,13.92
2022-10-16T07:47:35.752Z,13.95
2022-10-16T07:48:35.739Z,13.96
2022-10-16T07:49:35.761Z,13.95
2022-10-16T07:50:35.724Z,14.04
2022-10-16T07:51:35.743Z,14.10
2022-10-16T07:52:35.697Z,14.12
2022-10-16T07:53:35.685Z,14.10
2022-10-16T07:54:35.708Z,14.09
2022-10-16T07:55:35.665Z,14.10
2022-10-16T07:56:37.629Z,14.10
2022-10-16T07:57:35.651Z,14.10
2022-10-16T07:58:35.658Z,14.09
2022-10-16T07:59:35.621Z,14.09
2022-10-16T08:00:35.633Z,14.12
2022-10-16T08:01:35.652Z,14.13
2022-10-16T08:02:35.585Z,14.12
2022-10-16T08:03:35.616Z,14.12
2022-10-16T08:04:35.562Z,14.13
2022-10-16T08:05:35.554Z,14.16
2022-10-16T08:06:35.561Z,14.14
2022-10-16T08:07:35.557Z,14.14
2022-10-16T08:08:35.542Z,14.12
2022-10-16T08:09:35.505Z,14.21
2022-10-16T08:10:35.503Z,14.25
2022-10-16T08:11:35.499Z,14.21
2022-10-16T08:12:35.492Z,14.25
2022-10-16T08:13:36.280Z,14.27
2022-10-16T08:14:35.449Z,14.25
2022-10-16T08:15:35.463Z,14.24
2022-10-16T08:16:35.439Z,14.25
2022-10-16T08:17:35.493Z,14.25
2022-10-16T08:18:35.414Z,14.25
2022-10-16T08:19:35.412Z,14.25
2022-10-16T08:20:35.403Z,14.27
2022-10-16T08:21:35.384Z,14.28
2022-10-16T08:22:35.376Z,14.31
2022-10-16T08:23:35.348Z,14.32
2022-10-16T08:24:35.344Z,14.34
2022-10-16T08:25:35.846Z,14.37
2022-10-16T08:26:35.337Z,14.42
2022-10-16T08:27:35.358Z,14.47
2022-10-16T08:28:35.342Z,14.56
2022-10-16T08:29:36.092Z,14.62
2022-10-16T08:30:35.264Z,14.67
2022-10-16T08:31:35.283Z,14.71
2022-10-16T08:32:35.247Z,14.71
2022-10-16T08:33:35.226Z,14.71
2022-10-16T08:34:35.240Z,14.72
2022-10-16T08:35:35.211Z,14.72
2022-10-16T08:36:36.104Z,14.71
2022-10-16T08:37:35.185Z,14.72
2022-10-16T08:38:35.171Z,14.75
2022-10-16T08:39:35.168Z,14.83
2022-10-16T08:40:35.153Z,14.88
2022-10-16T08:41:35.194Z,14.93
2022-10-16T08:42:35.150Z,14.94
2022-10-16T08:43:35.135Z,14.98
2022-10-16T08:44:35.112Z,15.02
2022-10-16T08:45:35.090Z,15.03
2022-10-16T08:46:35.116Z,15.05
2022-10-16T08:47:35.083Z,15.05
2022-10-16T08:48:35.115Z,15.06
2022-10-16T08:49:35.149Z,15.12
2022-10-16T08:50:35.134Z,15.17
2022-10-16T08:51:37.974Z,15.20
2022-10-16T08:52:35.033Z,15.24
2022-10-16T08:53:35.022Z,15.27
2022-10-16T08:54:35.002Z,15.31
2022-10-16T08:55:34.994Z,15.33
2022-10-16T08:56:35.000Z,15.38
2022-10-16T08:57:34.970Z,15.39
2022-10-16T08:58:35.005Z,15.43
2022-10-16T08:59:34.941Z,15.46
2022-10-16T09:00:35.003Z,15.46
2022-10-16T09:01:34.955Z,15.48
2022-10-16T09:02:34.922Z,15.48
2022-10-16T09:03:34.902Z,15.51
2022-10-16T09:04:34.901Z,15.54
2022-10-16T09:05:34.893Z,15.60
2022-10-16T09:06:34.912Z,15.60
2022-10-16T09:07:34.850Z,15.57
2022-10-16T09:08:34.836Z,15.60
2022-10-16T09:09:34.862Z,15.61
2022-10-16T09:10:34.832Z,15.60
2022-10-16T09:11:34.826Z,15.59
2022-10-16T09:12:34.798Z,15.57
2022-10-16T09:13:34.792Z,15.52
2022-10-16T09:14:34.802Z,15.51
2022-10-16T09:15:34.790Z,15.57
2022-10-16T09:16:34.799Z,15.60
2022-10-16T09:17:34.776Z,15.59
2022-10-16T09:18:34.749Z,15.59
2022-10-16T09:19:34.742Z,15.56
2022-10-16T09:20:34.731Z,15.56
2022-10-16T09:21:34.723Z,15.52
2022-10-16T09:22:34.722Z,15.60
2022-10-16T09:23:34.677Z,15.67
2022-10-16T09:24:34.667Z,15.75
2022-10-16T09:25:34.660Z,15.82
2022-10-16T09:26:34.682Z,15.86
2022-10-16T09:27:34.636Z,15.86
2022-10-16T09:28:34.692Z,15.86
2022-10-16T09:29:34.608Z,15.94
2022-10-16T09:30:34.617Z,15.97
2022-10-16T09:31:34.644Z,15.97
2022-10-16T09:32:34.575Z,15.96
2022-10-16T09:33:34.572Z,15.93
2022-10-16T09:34:34.589Z,15.89
2022-10-16T09:35:34.558Z,15.93
2022-10-16T09:36:34.562Z,15.96
2022-10-16T09:37:34.551Z,15.97
2022-10-16T09:38:34.546Z,15.96
2022-10-16T09:39:34.507Z,15.96
2022-10-16T09:40:34.511Z,15.97
2022-10-16T09:41:34.557Z,15.96
2022-10-16T09:42:34.472Z,16.03
2022-10-16T09:43:34.457Z,16.09
2022-10-16T09:44:34.497Z,16.14
2022-10-16T09:45:34.442Z,16.07
2022-10-16T09:46:34.458Z,16.01
2022-10-16T09:47:34.470Z,15.97
2022-10-16T09:48:34.438Z,15.94
2022-10-16T09:49:34.388Z,15.88
2022-10-16T09:50:34.394Z,15.84
2022-10-16T09:51:34.394Z,15.79
2022-10-16T09:52:34.376Z,15.74
2022-10-16T09:53:34.348Z,15.67
2022-10-16T09:54:34.373Z,15.66
2022-10-16T09:55:34.419Z,15.63
2022-10-16T09:56:35.228Z,15.61
2022-10-16T09:57:34.622Z,15.59
2022-10-16T09:58:34.304Z,15.57
2022-10-16T09:59:34.302Z,15.54
2022-10-16T10:00:34.316Z,15.52
2022-10-16T10:01:34.299Z,15.54
2022-10-16T10:02:34.261Z,15.56
2022-10-16T10:03:34.278Z,15.57
2022-10-16T10:04:34.255Z,15.56
2022-10-16T10:05:34.238Z,15.66
2022-10-16T10:06:34.245Z,15.75
2022-10-16T10:07:34.198Z,15.78
2022-10-16T10:08:34.189Z,15.81
2022-10-16T10:09:34.162Z,15.82
2022-10-16T10:10:34.191Z,15.79
2022-10-16T10:11:34.183Z,15.76
2022-10-16T10:12:34.549Z,15.74
2022-10-16T10:13:34.150Z,15.68
2022-10-16T10:14:34.135Z,15.68
2022-10-16T10:15:34.118Z,15.67
2022-10-16T10:16:34.160Z,15.86
2022-10-16T10:17:34.093Z,15.99
2022-10-16T10:18:34.071Z,16.04
2022-10-16T10:19:34.068Z,16.06
2022-10-16T10:20:34.046Z,16.04
2022-10-16T10:21:34.055Z,16.09
2022-10-16T10:22:34.039Z,16.12
2022-10-16T10:23:34.022Z,16.14
2022-10-16T10:24:34.020Z,16.12
2022-10-16T10:25:34.006Z,16.09
2022-10-16T10:26:37.808Z,16.12
2022-10-16T10:27:33.990Z,16.20
2022-10-16T10:28:33.999Z,16.31
2022-10-16T10:29:33.965Z,16.37
2022-10-16T10:30:33.954Z,16.40
2022-10-16T10:31:33.973Z,16.60
2022-10-16T10:32:33.914Z,16.75
2022-10-16T10:33:33.908Z,16.81
2022-10-16T10:34:33.897Z,16.85
2022-10-16T10:35:33.889Z,16.85
2022-10-16T10:36:33.893Z,16.80
2022-10-16T10:37:33.858Z,16.75
2022-10-16T10:38:33.860Z,16.78
2022-10-16T10:39:33.836Z,16.81
2022-10-16T10:40:33.830Z,16.83
2022-10-16T10:41:33.843Z,16.95
2022-10-16T10:42:33.819Z,17.04
2022-10-16T10:43:33.791Z,17.08
2022-10-16T10:44:33.800Z,17.08
2022-10-16T10:45:33.769Z,17.07
2022-10-16T10:46:33.784Z,17.03
2022-10-16T10:47:33.850Z,16.95
2022-10-16T10:48:33.737Z,16.95
2022-10-16T10:49:33.754Z,16.96
2022-10-16T10:50:33.718Z,16.99
2022-10-16T10:51:33.728Z,17.00
2022-10-16T10:52:33.716Z,17.00
2022-10-16T10:53:33.700Z,17.03
2022-10-16T10:54:34.644Z,17.20
2022-10-16T10:55:33.668Z,17.25
2022-10-16T10:56:33.683Z,17.22
2022-10-16T10:57:33.636Z,17.15
2022-10-16T10:58:35.904Z,17.11
2022-10-16T10:59:33.621Z,17.00
2022-10-16T11:00:33.628Z,17.00
2022-10-16T11:01:33.651Z,17.00
2022-10-16T11:02:33.589Z,16.96
2022-10-16T11:03:33.657Z,16.99
2022-10-16T11:04:33.570Z,16.99
2022-10-16T11:05:33.549Z,16.98
2022-10-16T11:06:33.607Z,16.93
2022-10-16T11:07:33.527Z,16.90
2022-10-16T11:08:33.519Z,16.86
2022-10-16T11:09:33.518Z,16.83
2022-10-16T11:10:33.517Z,16.83
2022-10-16T11:11:33.510Z,16.83
2022-10-16T11:12:33.474Z,16.83
2022-10-16T11:13:33.459Z,16.85
2022-10-16T11:14:33.464Z,16.95
2022-10-16T11:15:33.430Z,17.08
2022-10-16T11:16:33.442Z,17.14
2022-10-16T11:17:33.416Z,17.17
2022-10-16T11:18:33.408Z,17.22
2022-10-16T11:19:33.388Z,17.20
2022-10-16T11:20:33.379Z,17.26
2022-10-16T11:21:33.380Z,17.26
2022-10-16T11:22:33.362Z,17.29
2022-10-16T11:23:33.349Z,17.43
2022-10-16T11:24:33.335Z,17.50
2022-10-16T11:25:33.316Z,17.50
2022-10-16T11:26:33.359Z,17.44
2022-10-16T11:27:33.330Z,17.41
2022-10-16T11:28:33.349Z,17.44
2022-10-16T11:29:33.267Z,17.41
2022-10-16T11:30:33.271Z,17.36
2022-10-16T11:31:33.297Z,17.35
2022-10-16T11:32:33.266Z,17.40
2022-10-16T11:33:33.235Z,17.43
2022-10-16T11:34:35.692Z,17.47
2022-10-16T11:35:33.205Z,17.48
2022-10-16T11:36:33.220Z,17.53
2022-10-16T11:37:33.187Z,17.63
2022-10-16T11:38:33.187Z,17.67
2022-10-16T11:39:33.185Z,17.67
2022-10-16T11:40:33.164Z,17.71
2022-10-16T11:41:33.164Z,17.73
2022-10-16T11:42:33.137Z,17.71
2022-10-16T11:43:33.122Z,17.70
2022-10-16T11:44:33.115Z,17.74
2022-10-16T11:45:33.135Z,17.87
2022-10-16T11:46:33.145Z,17.97
2022-10-16T11:47:57.538Z,18.02
2022-10-16T11:48:33.105Z,17.94
2022-10-16T11:49:33.058Z,17.84
2022-10-16T11:50:33.060Z,17.76
2022-10-16T11:51:33.067Z,17.69
2022-10-16T11:52:33.075Z,17.62
2022-10-16T11:53:33.020Z,17.51
2022-10-16T11:54:33.011Z,17.47
2022-10-16T11:55:33.426Z,17.43
2022-10-16T11:56:33.055Z,17.44
2022-10-16T11:57:32.961Z,17.43
2022-10-16T11:58:33.021Z,17.40
2022-10-16T11:59:32.949Z,17.41
2022-10-16T12:00:32.940Z,17.41
2022-10-16T12:01:32.955Z,17.38
2022-10-16T12:02:32.913Z,17.35
2022-10-16T12:03:32.938Z,17.29
2022-10-16T12:04:32.903Z,17.23
2022-10-16T12:05:32.891Z,17.18
2022-10-16T12:06:32.894Z,17.15
2022-10-16T12:07:32.870Z,17.10
2022-10-16T12:08:32.854Z,17.03
2022-10-16T12:09:32.840Z,16.99
2022-10-16T12:10:32.861Z,16.99
2022-10-16T12:11:32.830Z,17.10
2022-10-16T12:12:34.479Z,17.22
2022-10-16T12:13:32.817Z,17.25
2022-10-16T12:14:32.785Z,17.29
2022-10-16T12:15:58.827Z,17.28
2022-10-16T12:16:32.800Z,17.26
2022-10-16T12:17:32.767Z,17.26
2022-10-16T12:18:32.742Z,17.32
2022-10-16T12:19:32.731Z,17.36
2022-10-16T12:20:32.714Z,17.38
2022-10-16T12:21:32.765Z,17.40
2022-10-16T12:22:32.703Z,17.40
2022-10-16T12:23:32.680Z,17.40
2022-10-16T12:24:32.674Z,17.40
2022-10-16T12:25:32.670Z,17.38
2022-10-16T12:26:32.660Z,17.46
2022-10-16T12:27:39.192Z,17.47
2022-10-16T12:28:32.688Z,17.48
2022-10-16T12:29:32.604Z,17.47
2022-10-16T12:30:35.204Z,17.43
2022-10-16T12:31:32.600Z,17.44
2022-10-16T12:32:46.186Z,17.44
2022-10-16T12:33:32.601Z,17.43
2022-10-16T12:34:32.548Z,17.46
2022-10-16T12:35:32.553Z,17.41
2022-10-16T12:36:32.557Z,17.33
2022-10-16T12:37:32.603Z,17.29
2022-10-16T12:38:32.543Z,17.23
2022-10-16T12:39:32.495Z,17.17
2022-10-16T12:40:32.511Z,17.13
2022-10-16T12:41:32.473Z,17.13
2022-10-16T12:42:32.466Z,17.10
2022-10-16T12:43:32.451Z,17.11
2022-10-16T12:44:32.460Z,17.15
2022-10-16T12:45:32.423Z,17.20
2022-10-16T12:46:32.416Z,17.20
2022-10-16T12:47:32.469Z,17.17
2022-10-16T12:48:42.418Z,17.23
2022-10-16T12:49:32.382Z,17.29
2022-10-16T12:50:32.386Z,17.33
2022-10-16T12:51:32.366Z,17.41
2022-10-16T12:52:32.381Z,17.43
2022-10-16T12:53:32.343Z,17.44
2022-10-16T12:54:32.332Z,17.46